Time;durP1;ratioP1;P1;durP2;ratioP2;P2;SDS_P1;SDS_P2;PMS_P1;PMS_P2;Temp;Humidity;BMP_temperature;BMP_pressure;BME280_temperature;BME280_humidity;BME280_pressure;Samples;Min_cycle;Max_cycle;Signal;HPM_P1;HPM_P2
2022/04/22 00:01:28;;;;;;;8.70;6.22;;;;;;;12.35;56.27;100650.09;3594502;39;20055;-63
2022/04/22 00:03:55;;;;;;;13.00;6.45;;;;;;;12.32;56.16;100648.47;3576830;40;20044;-64
2022/04/22 00:06:21;;;;;;;8.27;6.22;;;;;;;12.28;56.46;100650.53;3591829;39;20105;-63
2022/04/22 00:08:46;;;;;;;9.27;6.55;;;;;;;12.26;57.04;100641.69;3585603;39;20208;-63
2022/04/22 00:11:31;;;;;;;9.90;6.90;;;;;;;12.23;57.01;100638.34;3595234;39;20051;-63
2022/04/22 00:14:04;;;;;;;8.82;6.63;;;;;;;12.18;57.47;100641.41;3585771;39;20073;-63
2022/04/22 00:16:32;;;;;;;10.52;6.55;;;;;;;12.05;57.18;100622.53;3595681;39;20058;-64
2022/04/22 00:18:59;;;;;;;9.70;6.63;;;;;;;11.96;57.51;100615.13;3577752;39;20612;-64
2022/04/22 00:21:26;;;;;;;9.73;6.80;;;;;;;12.04;57.35;100639.66;3593370;39;20039;-64
2022/04/22 00:23:53;;;;;;;10.75;6.93;;;;;;;12.04;58.07;100638.81;3591294;39;20059;-64
2022/04/22 00:26:20;;;;;;;9.77;7.10;;;;;;;12.04;57.68;100638.81;3588345;39;20091;-64
2022/04/22 00:28:46;;;;;;;13.02;7.20;;;;;;;11.58;57.87;100562.09;3584673;39;25332;-63
2022/04/22 00:31:13;;;;;;;10.75;6.80;;;;;;;11.96;57.79;100631.28;3590272;39;20084;-64
2022/04/22 00:33:38;;;;;;;10.70;7.45;;;;;;;11.93;57.93;100619.88;3588224;39;20049;-63
2022/04/22 00:36:04;;;;;;;9.30;7.22;;;;;;;11.95;58.57;100634.06;3592552;39;20052;-63
2022/04/22 00:38:30;;;;;;;8.80;7.30;;;;;;;11.93;58.60;100625.25;3593753;39;20121;-63
2022/04/22 00:40:56;;;;;;;10.63;7.68;;;;;;;11.93;58.41;100630.63;3584176;39;20050;-63
2022/04/22 00:43:27;;;;;;;9.30;7.40;;;;;;;11.90;58.46;100622.78;3594034;39;20108;-63
2022/04/22 00:45:54;;;;;;;8.07;7.03;;;;;;;11.87;58.41;100615.75;3582899;39;20782;-63
2022/04/22 00:48:22;;;;;;;12.07;7.57;;;;;;;11.84;58.76;100616.84;3591194;39;20125;-63
2022/04/22 00:50:48;;;;;;;9.45;7.80;;;;;;;11.82;58.77;100613.34;3587014;39;20047;-64
2022/04/22 00:53:15;;;;;;;12.75;7.68;;;;;;;11.81;59.56;100611.63;3592412;39;20070;-63
2022/04/22 00:55:44;;;;;;;8.93;7.97;;;;;;;11.76;59.54;100613.78;3585180;39;20162;-63
2022/04/22 00:58:12;;;;;;;10.20;7.13;;;;;;;11.73;59.75;100610.44;3596853;39;20410;-63
2022/04/22 01:00:39;;;;;;;11.18;8.15;;;;;;;11.12;59.45;100505.22;3579068;39;20152;-63
2022/04/22 01:03:08;;;;;;;9.82;8.00;;;;;;;11.65;60.05;100608.28;3583180;39;20076;-63
2022/04/22 01:11:05;;;;;;;9.70;7.28;;;;;;;11.54;60.40;100597.41;3583677;39;20051;-63
2022/04/22 01:13:31;;;;;;;10.98;8.00;;;;;;;11.56;60.38;100590.09;3594261;39;20370;-63
2022/04/22 01:15:57;;;;;;;10.15;7.43;;;;;;;11.50;60.39;100590.50;3582100;39;20071;-63
2022/04/22 01:18:23;;;;;;;13.55;7.65;;;;;;;11.52;60.16;100593.97;3586784;39;20429;-62
2022/04/22 01:20:48;;;;;;;11.95;7.80;;;;;;;11.50;61.35;100586.00;3578809;39;20067;-63
2022/04/22 01:23:14;;;;;;;13.18;8.45;;;;;;;11.50;61.33;100594.06;3598918;39;20098;-63
2022/04/22 01:25:41;;;;;;;10.80;7.93;;;;;;;11.49;61.31;100588.81;3591269;39;20143;-63
2022/04/22 01:28:07;;;;;;;11.98;8.57;;;;;;;11.50;61.54;100588.69;3598027;39;20293;-63
2022/04/22 01:30:33;;;;;;;11.75;8.63;;;;;;;11.42;61.18;100571.31;3577711;39;20048;-63
2022/04/22 01:32:59;;;;;;;11.80;8.02;;;;;;;11.50;61.78;100579.75;3588759;39;20108;-64
2022/04/22 01:35:25;;;;;;;10.15;8.45;;;;;;;11.42;61.50;100571.31;3583886;39;20051;-63
2022/04/22 01:37:51;;;;;;;13.77;8.38;;;;;;;11.36;61.29;100560.03;3596117;39;20073;-64
2022/04/22 01:40:18;;;;;;;10.32;7.60;;;;;;;11.48;61.50;100581.69;3597785;39;20051;-62
2022/04/22 01:42:44;;;;;;;11.73;7.95;;;;;;;11.48;61.92;100581.69;3586409;39;21249;-63
2022/04/22 01:45:12;;;;;;;9.90;7.72;;;;;;;11.48;61.60;100576.28;3594628;39;20476;-62
2022/04/22 01:47:38;;;;;;;11.15;8.40;;;;;;;11.49;61.48;100578.03;3585526;39;20301;-63
2022/04/22 01:50:04;;;;;;;9.93;8.13;;;;;;;11.52;61.39;100575.13;3585741;39;20047;-63
2022/04/22 01:52:30;;;;;;;10.18;7.90;;;;;;;11.50;62.37;100587.81;3586473;39;20062;-62
2022/04/22 01:54:56;;;;;;;12.45;8.35;;;;;;;11.49;62.29;100578.91;3593989;39;20051;-63
2022/04/22 01:57:23;;;;;;;12.10;9.18;;;;;;;11.47;62.43;100585.34;3596454;39;20074;-62
2022/04/22 01:59:50;;;;;;;13.18;9.15;;;;;;;11.42;61.79;100584.78;3586852;39;20059;-63
2022/04/22 02:02:17;;;;;;;12.93;9.13;;;;;;;11.33;62.85;100579.09;3597528;39;20043;-63
2022/04/22 02:04:44;;;;;;;11.40;8.70;;;;;;;11.34;62.24;100580.81;3578967;39;20362;-62
2022/04/22 02:07:11;;;;;;;11.55;8.55;;;;;;;11.23;63.18;100567.25;3591040;39;20059;-64
2022/04/22 02:09:36;;;;;;;12.45;9.18;;;;;;;11.26;63.11;100576.91;3594482;39;20051;-63
2022/04/22 02:12:04;;;;;;;11.50;8.93;;;;;;;11.25;63.08;100581.44;3593801;39;20306;-64
2022/04/22 02:14:30;;;;;;;12.55;8.95;;;;;;;11.23;63.69;100583.38;3587483;39;20066;-63
2022/04/22 02:16:56;;;;;;;12.00;8.57;;;;;;;11.19;63.07;100576.47;3596408;39;20120;-64
2022/04/22 02:19:22;;;;;;;10.93;8.55;;;;;;;11.09;63.42;100562.78;3582682;39;20064;-63
2022/04/22 02:21:49;;;;;;;12.60;8.95;;;;;;;11.15;63.63;100583.91;3586053;39;20043;-62
2022/04/22 02:24:15;;;;;;;11.35;8.85;;;;;;;11.10;63.73;100569.03;3591003;39;20047;-62
2022/04/22 02:29:26;;;;;;;14.68;9.63;;;;;;;11.03;63.78;100570.41;3589129;39;20151;-63
2022/04/22 02:31:52;;;;;;;14.30;9.20;;;;;;;10.99;64.75;100579.66;3595076;39;20051;-64
2022/04/22 02:34:23;;;;;;;13.73;10.48;;;;;;;10.98;64.73;100583.34;3583204;39;20083;-63
2022/04/22 02:36:50;;;;;;;11.95;9.48;;;;;;;10.97;64.22;100576.22;3585870;39;20688;-64
2022/04/22 02:39:17;;;;;;;13.15;9.73;;;;;;;10.78;65.01;100539.78;3589710;39;20048;-64
2022/04/22 02:47:13;;;;;;;13.82;10.45;;;;;;;11.01;64.97;100567.00;3595062;39;20081;-64
2022/04/22 02:49:44;;;;;;;12.68;10.07;;;;;;;11.01;65.02;100557.09;3584182;39;20896;-63
2022/04/22 02:52:11;;;;;;;13.32;9.55;;;;;;;11.00;64.69;100559.88;3594767;39;20378;-63
2022/04/22 02:54:37;;;;;;;14.38;10.10;;;;;;;10.99;65.29;100564.38;3580517;39;20043;-63
2022/04/22 02:57:05;;;;;;;13.20;10.00;;;;;;;10.94;64.30;100561.13;3594590;39;20091;-63
2022/04/22 02:59:31;;;;;;;12.43;9.63;;;;;;;10.89;65.10;100558.78;3587142;39;20405;-64
2022/04/22 03:01:58;;;;;;;13.13;10.55;;;;;;;10.85;65.37;100557.25;3592249;39;20063;-63
2022/04/22 03:04:27;;;;;;;14.30;10.35;;;;;;;10.82;65.78;100567.38;3593965;39;20306;-64
2022/04/22 03:06:56;;;;;;;13.57;10.38;;;;;;;10.80;65.66;100558.53;3586716;39;20066;-64
2022/04/22 03:09:23;;;;;;;13.95;10.48;;;;;;;10.75;65.20;100550.78;3594927;39;20059;-63
2022/04/22 03:11:49;;;;;;;13.32;10.43;;;;;;;10.74;65.35;100549.03;3586636;39;20063;-63
2022/04/22 03:14:16;;;;;;;14.15;10.25;;;;;;;10.71;65.48;100548.38;3596699;39;20062;-64
2022/04/22 03:16:42;;;;;;;13.38;10.15;;;;;;;10.21;65.28;100472.81;3588792;39;20129;-63
2022/04/22 03:19:09;;;;;;;13.13;10.27;;;;;;;10.67;66.04;100547.75;3595823;39;20054;-63
2022/04/22 03:21:34;;;;;;;15.07;10.43;;;;;;;10.62;66.23;100541.78;3573339;39;20109;-63
2022/04/22 03:24:01;;;;;;;15.40;11.68;;;;;;;10.55;65.92;100537.81;3592990;39;20063;-63
2022/04/22 03:26:27;;;;;;;12.68;10.32;;;;;;;10.55;66.80;100540.47;3587893;39;20450;-63
2022/04/22 03:28:53;;;;;;;17.08;11.50;;;;;;;10.50;66.13;100546.19;3595979;39;20066;-63
2022/04/22 03:31:19;;;;;;;15.85;11.68;;;;;;;10.48;66.57;100541.88;3591866;39;20040;-62
2022/04/22 03:33:45;;;;;;;14.68;11.10;;;;;;;10.42;67.16;100541.28;3590567;39;20049;-63
2022/04/22 03:36:12;;;;;;;16.20;11.98;;;;;;;10.43;67.00;100551.09;3597851;39;20067;-63
2022/04/22 03:38:38;;;;;;;14.73;11.35;;;;;;;10.35;66.78;100537.28;3583561;39;20059;-63
2022/04/22 03:41:03;;;;;;;16.67;10.98;;;;;;;10.23;67.35;100516.56;3588956;39;20344;-63
2022/04/22 03:43:29;;;;;;;15.20;11.20;;;;;;;10.27;67.25;100534.22;3592876;39;20055;-63
2022/04/22 03:45:55;;;;;;;16.50;11.43;;;;;;;10.29;67.17;100548.44;3586057;39;20858;-63
2022/04/22 03:48:20;;;;;;;16.85;12.15;;;;;;;10.11;67.42;100518.22;3594458;39;20050;-63
2022/04/22 03:50:46;;;;;;;15.75;11.85;;;;;;;10.25;67.78;100546.88;3591661;39;20055;-63
2022/04/22 03:53:12;;;;;;;13.95;11.85;;;;;;;10.22;67.59;100541.72;3585794;39;20064;-63
2022/04/22 03:55:41;;;;;;;14.25;12.18;;;;;;;10.22;68.11;100534.50;3588802;39;20058;-63
2022/04/22 03:58:11;;;;;;;16.85;12.75;;;;;;;10.21;67.76;100534.59;3627694;22;20381;-64
2022/04/22 04:00:50;;;;;;;16.77;12.73;;;;;;;10.19;67.89;100528.47;3594587;39;20393;-65
2022/04/22 04:03:23;;;;;;;16.50;12.60;;;;;;;10.11;68.19;100512.00;3589207;39;20051;-64
2022/04/22 04:05:50;;;;;;;16.48;12.73;;;;;;;10.16;68.69;100524.16;3593774;39;20682;-65
2022/04/22 04:08:21;;;;;;;17.77;12.88;;;;;;;10.15;68.04;100513.53;3581813;39;20376;-65
2022/04/22 04:16:17;;;;;;;;;;;;;;;9.96;68.96;100503.97;3592294;39;20119;-67
2022/04/22 04:18:42;;;;;;;16.25;13.02;;;;;;;10.06;68.96;100525.72;3583549;39;19931;-68
2022/04/22 04:23:56;;;;;;;19.63;14.32;;;;;;;9.97;68.57;100516.44;3576932;39;20067;-66
2022/04/22 04:26:25;;;;;;;21.48;14.05;;;;;;;9.96;68.85;100516.56;3589289;39;20276;-66
2022/04/22 04:28:53;;;;;;;18.20;13.82;;;;;;;9.98;69.35;100520.84;3575801;39;20058;-66
2022/04/22 04:31:20;;;;;;;17.33;13.52;;;;;;;9.99;69.27;100519.91;3586264;39;20327;-67
2022/04/22 04:33:46;;;;;;;18.95;13.93;;;;;;;10.00;69.55;100510.00;3578357;39;20466;-66
2022/04/22 04:36:12;;;;;;;17.00;14.05;;;;;;;10.03;68.55;100519.69;3587306;40;20320;-67
2022/04/22 04:38:41;;;;;;;18.17;13.23;;;;;;;10.02;69.53;100520.63;3582016;40;20044;-66
2022/04/22 04:41:08;;;;;;;18.83;13.77;;;;;;;9.79;69.35;100490.75;3575291;39;20090;-67
2022/04/22 04:43:36;;;;;;;18.73;14.48;;;;;;;10.03;69.54;100527.75;3578190;39;20349;-67
2022/04/22 04:46:02;;;;;;;20.83;14.00;;;;;;;9.92;69.72;100502.44;3583997;40;20056;-66
2022/04/22 04:48:28;;;;;;;16.85;13.38;;;;;;;10.05;69.38;100513.25;3584157;39;20048;-67
2022/04/22 04:50:55;;;;;;;20.80;14.23;;;;;;;10.09;69.85;100519.31;3578771;39;20103;-65
2022/04/22 04:53:25;;;;;;;19.58;13.80;;;;;;;10.07;69.78;100515.84;3584094;40;20223;-66
2022/04/22 04:55:52;;;;;;;19.50;14.98;;;;;;;10.12;69.48;100508.38;3572862;39;20216;-64
2022/04/22 04:58:21;;;;;;;21.42;14.45;;;;;;;10.19;69.61;100525.78;3579169;39;20409;-64
2022/04/22 05:00:48;;;;;;;18.77;14.07;;;;;;;10.08;69.34;100499.63;3581441;39;20051;-65
2022/04/22 05:03:15;;;;;;;18.15;15.15;;;;;;;10.15;68.91;100518.91;3584914;39;20044;-65
2022/04/22 05:05:41;;;;;;;19.45;14.30;;;;;;;10.19;69.62;100513.22;3577840;39;20125;-64
2022/04/22 05:08:07;;;;;;;20.90;14.77;;;;;;;10.13;69.59;100504.69;3582833;40;20056;-65
2022/04/22 05:10:35;;;;;;;21.33;14.23;;;;;;;10.18;69.09;100524.03;3579084;39;20291;-65
2022/04/22 05:13:03;;;;;;;20.80;15.13;;;;;;;10.16;69.67;100516.09;3564293;40;20050;-65
2022/04/22 05:15:31;;;;;;;19.65;15.20;;;;;;;10.21;69.49;100513.09;3578042;39;20048;-64
2022/04/22 05:17:59;;;;;;;22.40;14.70;;;;;;;10.15;69.03;100503.66;3580293;39;20124;-64
2022/04/22 05:20:25;;;;;;;21.05;15.68;;;;;;;10.21;69.20;100510.41;3583454;39;20060;-66
2022/04/22 05:22:53;;;;;;;20.73;14.95;;;;;;;10.14;69.26;100498.34;3578464;39;20752;-64
2022/04/22 05:25:20;;;;;;;19.50;15.35;;;;;;;10.27;69.71;100518.13;3586197;40;20036;-65
2022/04/22 05:27:47;;;;;;;19.25;15.77;;;;;;;10.29;69.68;100524.25;3572294;39;20059;-65
2022/04/22 05:33:03;;;;;;;22.33;15.48;;;;;;;10.34;69.63;100514.09;3582597;40;20160;-65
2022/04/22 05:35:29;;;;;;;21.08;16.20;;;;;;;10.31;69.55;100508.91;3583631;40;20306;-65
2022/04/22 05:38:01;;;;;;;21.23;15.68;;;;;;;10.43;69.02;100508.09;3576158;39;20133;-65
2022/04/22 05:40:31;;;;;;;21.80;15.27;;;;;;;10.57;69.16;100522.44;3585372;39;20066;-65
2022/04/22 05:42:58;;;;;;;20.48;15.68;;;;;;;10.60;68.73;100519.56;3575289;39;20236;-65
2022/04/22 05:45:27;;;;;;;21.02;15.77;;;;;;;10.64;69.01;100531.81;3581181;39;20116;-65
2022/04/22 05:47:53;;;;;;;22.25;16.70;;;;;;;10.71;69.50;100532.25;3582572;39;20071;-65
2022/04/22 05:50:21;;;;;;;23.23;16.83;;;;;;;10.74;69.50;100527.53;3586952;39;20047;-65
2022/04/22 05:52:47;;;;;;;22.20;16.02;;;;;;;10.80;68.91;100527.13;3577300;39;20058;-65
2022/04/22 05:55:18;;;;;;;18.27;15.32;;;;;;;10.84;69.38;100525.09;3587379;39;20050;-65
2022/04/22 05:57:47;;;;;;;20.65;16.45;;;;;;;10.87;68.78;100524.88;3574842;39;20149;-65
2022/04/22 06:00:16;;;;;;;22.65;16.98;;;;;;;10.81;69.61;100507.31;3586964;40;20148;-64
2022/04/22 06:02:43;;;;;;;22.35;16.83;;;;;;;10.94;69.37;100528.88;3577241;39;20052;-65
2022/04/22 06:05:11;;;;;;;21.13;16.98;;;;;;;10.97;68.72;100522.41;3575774;39;20064;-66
2022/04/22 06:07:38;;;;;;;24.15;17.45;;;;;;;10.19;69.11;100380.75;3584888;39;20068;-65
2022/04/22 06:12:55;;;;;;;22.35;16.92;;;;;;;11.17;69.15;100516.56;3583035;39;20444;-64
2022/04/22 06:15:20;;;;;;;25.48;17.92;;;;;;;11.29;68.65;100522.88;3578232;39;20109;-65
2022/04/22 06:17:47;;;;;;;23.48;17.27;;;;;;;11.36;68.29;100526.91;3576539;39;20499;-66
2022/04/22 06:20:13;;;;;;;22.63;18.05;;;;;;;11.42;68.06;100531.84;3585722;39;20040;-65
2022/04/22 06:22:39;;;;;;;22.38;18.48;;;;;;;11.44;68.69;100515.56;3583470;39;20087;-66
2022/04/22 06:25:06;;;;;;;21.83;17.40;;;;;;;11.58;68.18;100529.78;3580915;39;20060;-65
2022/04/22 06:27:39;;;;;;;22.60;17.92;;;;;;;11.53;68.20;100504.16;3572962;40;20074;-65
2022/04/22 06:30:07;;;;;;;22.67;18.10;;;;;;;11.74;67.95;100523.31;3577194;39;20063;-65
2022/04/22 06:32:35;;;;;;;22.10;17.35;;;;;;;11.84;67.65;100530.66;3580098;39;20281;-66
2022/04/22 06:35:02;;;;;;;23.20;17.15;;;;;;;11.94;67.30;100525.47;3586028;39;20995;-65
2022/04/22 06:37:37;;;;;;;21.58;17.83;;;;;;;12.14;66.37;100532.09;3584379;39;20059;-65
2022/04/22 06:45:48;;;;;;;21.17;17.65;;;;;;;12.93;64.38;100524.41;3573364;39;20058;-65
2022/04/22 06:48:31;;;;;;;20.38;17.20;;;;;;;12.94;63.67;100488.34;3580265;39;20055;-65
2022/04/22 06:51:00;;;;;;;21.23;16.50;;;;;;;13.39;62.50;100520.88;3574476;39;20071;-65
2022/04/22 06:53:27;;;;;;;22.05;16.70;;;;;;;13.53;61.70;100531.44;3590223;39;20124;-65
2022/04/22 06:55:58;;;;;;;17.98;15.30;;;;;;;13.66;61.56;100524.09;3583453;39;20274;-65
2022/04/22 06:58:26;;;;;;;21.02;17.52;;;;;;;13.84;61.62;100515.50;3580087;39;20051;-65
2022/04/22 07:00:52;;;;;;;18.90;15.98;;;;;;;13.94;61.03;100529.97;3573008;39;20125;-65
2022/04/22 07:03:18;;;;;;;19.98;16.15;;;;;;;13.93;60.41;100515.63;3579011;39;20306;-66
2022/04/22 07:05:49;;;;;;;20.98;16.08;;;;;;;14.15;60.29;100522.84;3582468;39;20056;-66
2022/04/22 07:08:17;;;;;;;17.40;14.80;;;;;;;14.19;59.88;100496.41;3587343;39;20068;-65
2022/04/22 07:10:45;;;;;;;19.25;15.50;;;;;;;14.46;58.53;100516.72;3582092;39;20095;-66
2022/04/22 07:13:12;;;;;;;18.95;15.13;;;;;;;14.54;58.93;100509.75;3579887;39;20360;-65
2022/04/22 07:15:43;;;;;;;20.35;16.48;;;;;;;14.72;58.46;100517.31;3575215;39;20053;-65
2022/04/22 07:18:10;;;;;;;19.00;15.75;;;;;;;14.70;57.81;100516.56;3584257;39;20103;-66
2022/04/22 07:20:36;;;;;;;19.90;16.10;;;;;;;14.56;57.86;100515.03;3576264;39;20082;-65
2022/04/22 07:23:03;;;;;;;21.08;16.75;;;;;;;14.40;58.46;100499.19;3584654;39;20063;-65
2022/04/22 07:25:29;;;;;;;18.55;15.50;;;;;;;14.28;58.59;100519.13;3583790;39;20070;-66
2022/04/22 07:27:56;;;;;;;20.80;16.27;;;;;;;14.22;59.26;100522.34;3573183;39;20103;-65
2022/04/22 07:30:23;;;;;;;18.98;15.93;;;;;;;14.31;59.90;100503.50;3582332;40;20059;-64
2022/04/22 07:32:49;;;;;;;23.05;16.17;;;;;;;14.63;59.82;100490.03;3575739;39;20060;-65
2022/04/22 07:35:18;;;;;;;20.13;15.18;;;;;;;15.10;57.85;100492.41;3573438;40;20091;-65
2022/04/22 07:37:53;;;;;;;17.15;14.60;;;;;;;15.42;55.94;100495.00;3578613;40;20074;-66
2022/04/22 07:40:21;;;;;;;23.20;18.20;;;;;;;15.48;55.89;100499.88;3580791;40;20375;-66
2022/04/22 07:48:26;;;;;;;20.15;15.50;;;;;;;15.29;55.34;100486.25;3581337;40;20109;-67
2022/04/22 07:50:54;;;;;;;17.88;15.30;;;;;;;15.25;56.35;100501.03;3572755;39;20064;-66
2022/04/22 07:53:21;;;;;;;17.40;14.18;;;;;;;15.33;55.84;100501.22;3571555;40;20044;-65
2022/04/22 07:55:48;;;;;;;16.98;14.38;;;;;;;15.43;55.67;100502.13;3578599;39;20072;-65
2022/04/22 07:58:16;;;;;;;14.77;13.20;;;;;;;15.45;55.42;100502.00;3579744;39;20063;-65
2022/04/22 08:00:47;;;;;;;17.30;14.32;;;;;;;15.37;55.00;100493.69;3579493;40;20060;-65
2022/04/22 08:03:18;;;;;;;17.08;14.43;;;;;;;15.51;54.88;100509.59;3575119;39;20295;-65
2022/04/22 08:05:43;;;;;;;16.55;13.52;;;;;;;15.78;53.57;100495.50;3576583;39;20057;-66
2022/04/22 08:08:10;;;;;;;14.70;12.80;;;;;;;15.97;53.76;100495.56;3583017;40;20409;-66
2022/04/22 08:10:36;;;;;;;17.02;13.63;;;;;;;16.16;53.40;100489.31;3582829;40;20054;-67
2022/04/22 08:13:05;;;;;;;15.63;13.70;;;;;;;16.18;53.16;100495.47;3581813;39;20058;-66
2022/04/22 08:15:30;;;;;;;14.95;13.23;;;;;;;15.43;53.10;100401.91;3576657;40;20363;-67
2022/04/22 08:17:56;;;;;;;15.45;13.82;;;;;;;15.86;54.00;100490.25;3563617;40;20066;-65
2022/04/22 08:20:21;;;;;;;16.77;13.95;;;;;;;15.60;54.12;100480.81;3584652;40;20047;-65
2022/04/22 08:22:47;;;;;;;18.65;14.70;;;;;;;15.19;54.53;100434.75;3578949;39;20051;-65
2022/04/22 08:25:13;;;;;;;17.45;14.23;;;;;;;15.43;54.93;100485.03;3586113;40;20086;-66
2022/04/22 08:27:40;;;;;;;17.23;14.05;;;;;;;15.39;55.42;100489.84;3579624;39;20056;-66
2022/04/22 08:30:08;;;;;;;16.95;13.52;;;;;;;15.19;54.79;100460.94;3579437;39;20160;-65
2022/04/22 08:32:34;;;;;;;17.42;13.85;;;;;;;15.25;55.96;100487.47;3573184;39;20326;-66
2022/04/22 08:35:00;;;;;;;15.40;13.68;;;;;;;15.24;55.13;100488.47;3583823;40;20056;-72
2022/04/22 08:37:25;;;;;;;17.80;14.70;;;;;;;15.14;55.73;100474.03;3579707;39;20113;-66
2022/04/22 08:39:51;;;;;;;16.52;14.10;;;;;;;15.09;55.83;100464.44;3580997;40;20658;-65
2022/04/22 08:42:23;;;;;;;17.00;14.55;;;;;;;15.08;56.88;100449.19;3580057;40;20055;-65
2022/04/22 08:44:49;;;;;;;16.05;14.35;;;;;;;15.44;55.77;100460.50;3572998;39;20162;-66
2022/04/22 08:49:59;;;;;;;15.25;13.07;;;;;;;15.93;53.58;100450.75;3583877;39;20843;-66
2022/04/22 08:52:33;;;;;;;16.48;14.18;;;;;;;16.20;53.08;100469.06;3583108;39;20044;-66
2022/04/22 08:55:02;;;;;;;15.18;13.50;;;;;;;16.63;51.85;100466.97;3581976;40;20045;-66
2022/04/22 08:57:28;;;;;;;15.77;12.90;;;;;;;16.86;51.48;100462.97;3582772;40;20108;-65
2022/04/22 09:00:00;;;;;;;15.95;13.55;;;;;;;16.96;50.54;100452.09;3580259;39;20404;-66
2022/04/22 09:02:28;;;;;;;15.90;12.60;;;;;;;17.35;50.00;100466.47;3578695;39;20734;-66
2022/04/22 09:04:53;;;;;;;17.50;13.52;;;;;;;17.56;50.68;100463.53;3575436;39;20389;-66
2022/04/22 09:07:22;;;;;;;14.25;11.50;;;;;;;18.13;48.40;100468.00;3577261;39;20076;-66
2022/04/22 09:09:49;;;;;;;13.00;11.70;;;;;;;18.39;46.80;100454.50;3585089;40;20109;-67
2022/04/22 09:12:21;;;;;;;15.70;11.88;;;;;;;18.49;46.60;100456.16;3579404;40;20606;-66
2022/04/22 09:14:51;;;;;;;15.68;11.57;;;;;;;18.26;46.78;100454.91;3589430;40;20055;-66
2022/04/22 09:17:33;;;;;;;14.00;12.07;;;;;;;17.98;47.45;100426.88;3575633;39;20675;-66
2022/04/22 09:20:04;;;;;;;13.73;10.98;;;;;;;18.04;48.22;100450.72;3576061;39;20073;-67
2022/04/22 09:22:34;;;;;;;13.65;10.48;;;;;;;17.85;47.42;100447.09;3579483;39;20075;-66
2022/04/22 09:25:04;;;;;;;14.48;11.90;;;;;;;17.79;47.77;100439.59;3583060;40;20040;-67
2022/04/22 09:27:42;;;;;;;11.38;10.18;;;;;;;17.80;47.81;100438.56;3586104;40;20150;-66
2022/04/22 09:30:12;;;;;;;13.60;10.65;;;;;;;17.45;46.89;100359.63;3577081;39;20059;-67
2022/04/22 09:32:40;;;;;;;12.50;11.20;;;;;;;17.88;46.88;100418.75;3582423;40;20064;-66
2022/04/22 09:35:12;;;;;;;12.18;10.98;;;;;;;17.89;46.62;100447.69;3573279;39;20063;-67
2022/04/22 09:43:44;;;;;;;14.02;11.70;;;;;;;17.18;48.80;100421.03;3580345;40;20082;-66
2022/04/22 09:46:29;;;;;;;12.50;11.13;;;;;;;16.93;48.52;100412.53;3577068;39;20253;-66
2022/04/22 09:48:56;;;;;;;12.20;9.93;;;;;;;16.79;48.49;100410.28;3584922;40;20076;-66
2022/04/22 09:51:27;;;;;;;11.30;9.70;;;;;;;16.58;48.53;100396.84;3572646;39;20145;-66
2022/04/22 09:54:06;;;;;;;11.57;10.07;;;;;;;16.74;49.41;100403.53;3583462;40;20066;-66
2022/04/22 09:59:25;;;;;;;11.75;10.43;;;;;;;16.77;49.96;100406.00;3586439;39;20051;-61
2022/04/22 10:01:51;;;;;;;18.10;14.43;;;;;;;16.74;49.23;100406.25;3598678;39;20068;-64
2022/04/22 10:04:19;;;;;;;14.57;12.15;;;;;;;16.79;50.25;100414.84;3589583;39;20087;-62
2022/04/22 10:06:46;;;;;;;11.90;10.30;;;;;;;16.80;49.30;100397.56;3587088;39;20393;-62
2022/04/22 10:09:16;;;;;;;11.75;10.35;;;;;;;16.64;48.66;100398.13;3577852;40;20426;-61
2022/04/22 10:11:47;;;;;;;11.10;9.90;;;;;;;16.57;48.63;100399.69;3580442;39;20040;-62
2022/04/22 10:14:17;;;;;;;13.50;9.77;;;;;;;16.40;48.63;100399.44;3580487;39;20056;-63
2022/04/22 10:16:44;;;;;;;13.57;9.70;;;;;;;16.22;48.86;100395.72;3571812;39;20048;-63
2022/04/22 10:19:12;;;;;;;10.93;9.82;;;;;;;16.05;49.63;100381.00;3575222;39;20044;-63
2022/04/22 10:21:40;;;;;;;11.88;10.68;;;;;;;16.09;49.69;100397.84;3565908;40;20272;-61
2022/04/22 10:24:08;;;;;;;13.85;10.75;;;;;;;15.98;50.09;100390.66;3578582;40;20090;-60
2022/04/22 10:26:34;;;;;;;12.70;10.07;;;;;;;16.06;50.10;100385.41;3576866;39;20051;-62
2022/04/22 10:29:03;;;;;;;10.60;9.55;;;;;;;16.23;49.38;100383.84;3580667;40;20056;-60
2022/04/22 10:31:31;;;;;;;13.10;10.30;;;;;;;16.44;49.67;100387.28;3581640;40;20727;-62
2022/04/22 10:34:08;;;;;;;11.30;10.10;;;;;;;16.69;49.19;100380.41;3575508;39;20044;-61
2022/04/22 10:36:34;;;;;;;11.35;10.15;;;;;;;16.98;48.07;100384.94;3573060;39;20060;-62
2022/04/22 10:39:01;;;;;;;10.73;9.25;;;;;;;16.96;47.94;100357.06;3575341;39;20048;-61
2022/04/22 10:41:26;;;;;;;12.77;10.88;;;;;;;17.00;47.38;100382.06;3575320;40;20267;-62
2022/04/22 10:49:46;;;;;;;11.68;10.30;;;;;;;16.67;47.89;100376.97;3577535;39;20081;-63
2022/04/22 10:52:14;;;;;;;13.00;10.68;;;;;;;16.53;47.52;100350.28;3560611;39;20122;-62
2022/04/22 10:54:52;;;;;;;12.68;10.18;;;;;;;16.63;47.82;100369.28;3578331;40;20334;-63
2022/04/22 10:57:29;;;;;;;11.23;10.13;;;;;;;16.67;47.62;100367.97;3568657;39;20064;-63
2022/04/22 11:00:04;;;;;;;10.82;9.73;;;;;;;16.78;46.73;100375.13;3579700;40;20064;-62
2022/04/22 11:02:36;;;;;;;14.05;10.32;;;;;;;16.80;47.47;100364.97;3581750;40;20052;-63
2022/04/22 11:05:19;;;;;;;12.60;10.02;;;;;;;16.92;47.18;100361.94;3578865;39;20129;-63
2022/04/22 11:07:51;;;;;;;;;;;;;;;17.05;46.82;100360.78;3579754;39;20119;-63
2022/04/22 11:10:22;;;;;;;11.85;9.90;;;;;;;17.07;46.36;100359.63;3569732;40;19956;-62
2022/04/22 11:13:00;;;;;;;14.00;9.95;;;;;;;16.99;45.73;100351.34;3574575;39;20383;-62
2022/04/22 11:16:06;;;;;;;10.93;9.82;;;;;;;17.00;46.53;100352.19;3580745;40;20119;-62
2022/04/22 11:18:33;;;;;;;11.98;10.02;;;;;;;16.91;47.05;100349.38;3571322;39;20369;-63
2022/04/22 11:21:09;;;;;;;12.02;10.35;;;;;;;16.70;47.22;100329.69;3576482;39;20311;-62
2022/04/22 11:23:39;;;;;;;12.32;11.13;;;;;;;16.76;46.68;100353.56;3579074;40;20357;-62
2022/04/22 11:26:06;;;;;;;13.25;10.88;;;;;;;16.78;47.58;100351.56;3570323;39;20048;-61
2022/04/22 11:28:39;;;;;;;14.40;11.15;;;;;;;16.78;47.08;100351.56;3574125;39;20158;-62
2022/04/22 11:31:10;;;;;;;13.45;10.50;;;;;;;16.70;47.24;100348.69;3579165;40;20202;-63
2022/04/22 11:34:13;;;;;;;14.07;11.18;;;;;;;16.60;48.06;100343.28;3580562;40;20048;-62
2022/04/22 11:36:48;;;;;;;15.77;10.05;;;;;;;16.52;47.29;100350.44;3574530;39;20360;-63
2022/04/22 11:39:21;;;;;;;12.48;10.93;;;;;;;16.45;47.42;100352.88;3571010;39;20553;-63
2022/04/22 11:41:57;;;;;;;15.70;10.65;;;;;;;16.43;47.67;100349.47;3578804;40;20146;-63
2022/04/22 11:44:24;;;;;;;12.15;10.45;;;;;;;16.40;47.78;100350.59;3571655;39;20119;-63
2022/04/22 11:46:51;;;;;;;12.55;10.82;;;;;;;16.51;47.31;100346.88;3581233;40;20083;-62
2022/04/22 11:49:18;;;;;;;11.98;10.50;;;;;;;16.64;47.13;100341.13;3572487;39;20158;-63
2022/04/22 11:51:44;;;;;;;11.57;10.38;;;;;;;16.74;46.34;100343.81;3579699;40;20044;-61
2022/04/22 11:54:10;;;;;;;11.95;10.43;;;;;;;16.82;47.19;100333.97;3566932;40;20055;-61
2022/04/22 11:56:35;;;;;;;12.15;9.80;;;;;;;17.00;46.54;100330.47;3570927;39;20098;-62
2022/04/22 11:59:02;;;;;;;12.02;10.13;;;;;;;17.19;46.94;100338.56;3576523;39;20044;-61
2022/04/22 12:10:05;;;;;;;13.32;10.75;;;;;;;17.91;44.58;100325.16;3579696;40;20088;-62
2022/04/22 12:12:32;;;;;;;13.18;10.98;;;;;;;18.01;45.20;100339.53;3572353;39;20044;-63
2022/04/22 12:15:07;;;;;;;13.13;10.23;;;;;;;18.03;44.91;100326.63;3577959;39;20059;-62
2022/04/22 12:17:33;;;;;;;14.55;11.05;;;;;;;18.11;44.51;100321.28;3578961;39;20096;-63
2022/04/22 12:19:58;;;;;;;11.88;10.68;;;;;;;18.23;44.42;100325.44;3577923;39;20095;-62
2022/04/22 12:22:25;;;;;;;12.38;10.63;;;;;;;18.37;43.84;100320.50;3575275;39;20048;-63